Time;durP1;ratioP1;P1;durP2;ratioP2;P2;SDS_P1;SDS_P2;PMS_P1;PMS_P2;Temp;Humidity;BMP_temperature;BMP_pressure;BME280_temperature;BME280_humidity;BME280_pressure;Samples;Min_cycle;Max_cycle;Signal;HPM_P1;HPM_P2
2022/03/05 00:01:57;;;;;;;37.13;24.63;;;13.50;71.60;;;;;;5272425;28;20478;-32
2022/03/05 00:04:28;;;;;;;29.60;21.47;;;13.50;71.60;;;;;;5272210;28;20040;-32
2022/03/05 00:06:59;;;;;;;25.70;18.70;;;13.50;72.10;;;;;;5272222;28;20437;-43
2022/03/05 00:09:30;;;;;;;30.17;21.27;;;13.50;71.40;;;;;;5272429;28;20074;-32
2022/03/05 00:12:01;;;;;;;30.07;23.03;;;13.50;71.20;;;;;;5272955;28;20075;-42
2022/03/05 00:14:32;;;;;;;32.37;22.17;;;13.50;71.20;;;;;;5271180;28;20485;-34
2022/03/05 00:17:04;;;;;;;31.73;22.00;;;13.50;71.10;;;;;;5271544;28;20120;-34
2022/03/05 00:19:35;;;;;;;31.50;21.80;;;13.50;70.90;;;;;;5270243;28;20048;-36
2022/03/05 00:22:06;;;;;;;31.50;20.47;;;13.50;70.80;;;;;;5272094;28;20048;-32
2022/03/05 00:24:36;;;;;;;34.27;21.17;;;13.50;70.80;;;;;;5272414;28;20380;-32
2022/03/05 00:27:08;;;;;;;30.47;20.53;;;13.50;70.40;;;;;;5272195;28;20056;-35
2022/03/05 00:29:40;;;;;;;39.47;22.40;;;13.50;70.30;;;;;;5272823;28;20377;-32
2022/03/05 00:32:11;;;;;;;55.57;30.23;;;13.50;70.30;;;;;;5271100;28;20051;-33
2022/03/05 00:34:42;;;;;;;74.67;37.37;;;13.50;70.10;;;;;;5271411;28;20044;-33
2022/03/05 00:37:13;;;;;;;43.13;25.90;;;13.40;69.90;;;;;;5271350;28;20076;-39
2022/03/05 00:39:44;;;;;;;38.27;24.20;;;13.50;70.20;;;;;;5270051;28;20040;-35
2022/03/05 00:42:15;;;;;;;44.73;24.33;;;13.40;70.20;;;;;;5272311;28;20125;-32
2022/03/05 00:44:46;;;;;;;39.27;24.77;;;13.50;70.40;;;;;;5270298;28;20044;-34
2022/03/05 00:47:17;;;;;;;42.50;26.13;;;13.50;70.60;;;;;;5271494;28;20048;-35
2022/03/05 00:49:48;;;;;;;42.57;26.97;;;13.50;70.60;;;;;;5270738;28;20054;-32
2022/03/05 00:52:20;;;;;;;49.27;27.63;;;13.50;70.60;;;;;;5271530;28;20086;-33
2022/03/05 00:54:51;;;;;;;45.80;26.17;;;13.50;70.40;;;;;;5268847;28;20051;-33
2022/03/05 00:57:22;;;;;;;48.93;30.50;;;13.50;70.10;;;;;;5271730;28;20157;-33
2022/03/05 00:59:53;;;;;;;44.40;29.47;;;13.50;70.00;;;;;;5271680;28;20149;-35
2022/03/05 01:02:24;;;;;;;50.43;30.57;;;13.50;69.80;;;;;;5271145;28;20052;-33
2022/03/05 01:04:55;;;;;;;42.03;28.03;;;13.50;69.70;;;;;;5271506;28;20047;-32
2022/03/05 01:07:26;;;;;;;37.87;25.33;;;13.50;69.70;;;;;;5271380;28;20051;-32
2022/03/05 01:09:57;;;;;;;33.23;22.30;;;13.50;69.50;;;;;;5271450;28;20040;-41
2022/03/05 01:12:28;;;;;;;39.03;24.90;;;13.50;69.50;;;;;;5271133;28;20130;-32
2022/03/05 01:14:59;;;;;;;40.00;26.83;;;13.50;69.40;;;;;;5271353;28;20115;-40
2022/03/05 01:17:30;;;;;;;46.73;30.03;;;13.40;69.40;;;;;;5271125;28;20040;-39
2022/03/05 01:20:01;;;;;;;42.03;27.83;;;13.50;69.40;;;;;;5271097;28;20511;-35
2022/03/05 01:22:33;;;;;;;50.27;33.27;;;13.50;69.50;;;;;;5270790;28;20083;-40
2022/03/05 01:25:05;;;;;;;45.00;30.63;;;13.50;69.40;;;;;;5270828;28;20067;-32
2022/03/05 01:27:36;;;;;;;34.43;23.90;;;13.50;69.20;;;;;;5269824;28;20444;-38
2022/03/05 01:30:07;;;;;;;36.03;23.93;;;13.50;69.30;;;;;;5271610;28;20052;-34
2022/03/05 01:32:38;;;;;;;35.83;22.27;;;13.50;69.30;;;;;;5270846;28;20052;-39
2022/03/05 01:35:09;;;;;;;35.90;23.97;;;13.50;69.60;;;;;;5270838;28;20051;-37
2022/03/05 01:37:40;;;;;;;32.80;21.87;;;13.50;69.80;;;;;;5269314;28;20471;-36
2022/03/05 01:40:11;;;;;;;34.07;22.90;;;13.50;69.70;;;;;;5271087;28;20119;-41
2022/03/05 01:42:42;;;;;;;31.50;22.23;;;13.50;69.60;;;;;;5270854;28;20071;-35
2022/03/05 01:45:13;;;;;;;31.50;22.30;;;13.50;69.50;;;;;;5252232;28;20076;-32
2022/03/05 01:47:45;;;;;;;59.10;32.73;;;13.40;69.30;;;;;;5270464;28;20056;-33
2022/03/05 01:50:16;;;;;;;36.77;22.93;;;13.40;69.30;;;;;;5270360;28;20428;-33
2022/03/05 01:52:47;;;;;;;28.37;18.97;;;13.50;69.30;;;;;;5270835;28;20044;-35
2022/03/05 01:55:18;;;;;;;31.67;20.63;;;13.50;69.20;;;;;;5270362;28;20146;-32
2022/03/05 01:57:49;;;;;;;39.60;24.50;;;13.50;69.10;;;;;;5269666;28;20052;-37
2022/03/05 02:00:21;;;;;;;39.03;22.93;;;13.50;69.00;;;;;;5270906;28;20044;-35
2022/03/05 02:02:52;;;;;;;48.07;28.43;;;13.50;69.10;;;;;;5270140;28;20071;-36
2022/03/05 02:05:23;;;;;;;43.63;25.97;;;13.50;69.00;;;;;;5270351;28;20078;-43
2022/03/05 02:07:55;;;;;;;38.90;24.50;;;13.50;69.00;;;;;;5269632;28;20044;-32
2022/03/05 02:10:25;;;;;;;35.00;23.60;;;13.50;69.00;;;;;;5270290;28;20040;-32
2022/03/05 02:12:57;;;;;;;37.50;23.20;;;13.50;69.00;;;;;;5269882;28;20048;-37
2022/03/05 02:15:28;;;;;;;36.33;21.80;;;13.50;68.90;;;;;;5270099;28;20534;-34
2022/03/05 02:17:59;;;;;;;31.27;21.33;;;13.50;69.00;;;;;;5269473;28;20120;-31
2022/03/05 02:20:30;;;;;;;29.23;19.60;;;13.50;69.30;;;;;;5269824;28;20044;-41
2022/03/05 02:23:01;;;;;;;28.83;19.07;;;13.40;69.20;;;;;;5269866;28;20539;-37
2022/03/05 02:25:32;;;;;;;33.27;20.87;;;13.50;69.90;;;;;;5269653;28;20064;-42
2022/03/05 02:28:03;;;;;;;35.43;21.77;;;13.50;69.30;;;;;;5269008;28;20040;-42
2022/03/05 02:30:34;;;;;;;35.73;21.43;;;13.50;69.50;;;;;;5270212;28;20542;-32
2022/03/05 02:33:05;;;;;;;32.97;20.23;;;13.50;69.60;;;;;;5270037;28;20401;-32
2022/03/05 02:35:36;;;;;;;27.27;17.67;;;13.50;69.70;;;;;;5269634;28;20040;-32
2022/03/05 02:38:07;;;;;;;25.03;17.93;;;13.40;69.80;;;;;;5269336;28;20092;-33
2022/03/05 02:40:39;;;;;;;31.73;20.30;;;13.40;69.90;;;;;;5269732;28;20121;-37
2022/03/05 02:43:10;;;;;;;55.33;35.63;;;13.40;70.10;;;;;;5269479;28;20055;-41
2022/03/05 02:45:41;;;;;;;36.10;23.80;;;13.40;70.20;;;;;;5268361;28;20075;-32
2022/03/05 02:48:13;;;;;;;31.77;20.23;;;13.40;70.30;;;;;;5269915;28;20415;-33
2022/03/05 02:50:45;;;;;;;26.53;18.07;;;13.40;70.40;;;;;;5269531;28;20437;-42
2022/03/05 02:53:16;;;;;;;29.27;20.53;;;13.40;70.50;;;;;;5268565;28;20063;-34
2022/03/05 02:55:47;;;;;;;24.07;17.10;;;13.40;70.60;;;;;;5268361;28;20098;-35
2022/03/05 02:58:18;;;;;;;25.40;16.73;;;13.40;70.80;;;;;;5268893;28;20060;-36
2022/03/05 03:00:50;;;;;;;26.73;19.23;;;13.40;70.80;;;;;;5268227;28;20044;-32
2022/03/05 03:03:21;;;;;;;24.87;17.87;;;13.30;70.70;;;;;;5270297;28;20443;-32
2022/03/05 03:05:52;;;;;;;29.37;20.60;;;13.40;70.80;;;;;;5268249;28;20040;-33
2022/03/05 03:08:23;;;;;;;35.00;25.20;;;13.40;70.70;;;;;;5269731;28;20440;-40
2022/03/05 03:10:54;;;;;;;36.10;25.83;;;13.40;70.70;;;;;;5269926;28;20044;-41
2022/03/05 03:13:25;;;;;;;49.17;33.73;;;13.40;70.70;;;;;;5269182;28;20087;-35
2022/03/05 03:15:56;;;;;;;42.10;27.53;;;13.30;70.60;;;;;;5268971;28;20509;-44
2022/03/05 03:18:27;;;;;;;32.57;25.27;;;13.30;71.00;;;;;;5269453;28;20122;-37
2022/03/05 03:20:58;;;;;;;40.00;26.63;;;13.30;70.50;;;;;;5273912;28;20429;-43
2022/03/05 03:23:29;;;;;;;30.73;20.23;;;13.30;70.50;;;;;;5272638;28;20056;-39
2022/03/05 03:26:00;;;;;;;27.23;19.23;;;13.30;70.50;;;;;;5271405;28;20117;-35
2022/03/05 03:28:31;;;;;;;38.13;24.10;;;13.30;70.50;;;;;;5271905;28;20054;-35
2022/03/05 03:31:02;;;;;;;;;;;13.30;70.50;;;;;;5273677;28;20374;-31
2022/03/05 03:33:33;;;;;;;;;;;13.30;70.50;;;;;;5273418;28;19946;-39
2022/03/05 03:36:04;;;;;;;;;;;13.30;70.40;;;;;;5273789;28;19920;-33
2022/03/05 03:38:35;;;;;;;;;;;13.30;70.40;;;;;;5273749;28;19920;-42
2022/03/05 03:41:06;;;;;;;;;;;13.30;70.20;;;;;;5273781;28;19919;-42
2022/03/05 03:43:36;;;;;;;;;;;13.20;70.10;;;;;;5273557;28;20019;-38
2022/03/05 03:46:07;;;;;;;;;;;13.30;70.10;;;;;;5273691;28;20006;-32
2022/03/05 03:48:39;;;;;;;;;;;13.20;70.00;;;;;;5273540;28;19974;-32
2022/03/05 03:51:09;;;;;;;;;;;13.30;70.00;;;;;;5273275;28;19948;-37
2022/03/05 03:53:40;;;;;;;;;;;13.30;70.00;;;;;;5273848;28;19920;-32
2022/03/05 03:56:11;;;;;;;;;;;13.20;69.90;;;;;;5255364;28;19923;-34
2022/03/05 03:58:42;;;;;;;;;;;13.20;69.90;;;;;;5271917;28;19919;-39
2022/03/05 04:01:13;;;;;;;;;;;13.20;69.90;;;;;;5273214;28;20308;-36
2022/03/05 04:03:44;;;;;;;;;;;13.20;69.90;;;;;;5273105;28;20001;-31
2022/03/05 04:06:15;;;;;;;;;;;13.20;69.80;;;;;;5273019;28;19953;-42
2022/03/05 04:08:46;;;;;;;;;;;13.20;69.70;;;;;;5273450;28;20273;-37
2022/03/05 04:11:18;;;;;;;;;;;13.20;69.60;;;;;;5273164;28;19920;-37
2022/03/05 04:13:49;;;;;;;;;;;13.20;69.50;;;;;;5272877;28;20277;-33
2022/03/05 04:16:19;;;;;;;;;;;13.20;69.50;;;;;;5273109;28;19920;-33
2022/03/05 04:18:51;;;;;;;;;;;13.20;69.40;;;;;;5272984;28;20081;-33
2022/03/05 04:21:21;;;;;;;;;;;13.20;69.30;;;;;;5273004;28;19924;-36
2022/03/05 04:23:52;;;;;;;;;;;13.20;69.10;;;;;;5272614;28;19927;-32
2022/03/05 04:26:23;;;;;;;;;;;13.20;69.20;;;;;;5273368;28;19920;-38
2022/03/05 04:28:54;;;;;;;;;;;13.20;69.20;;;;;;5272392;28;20389;-41
2022/03/05 04:31:25;;;;;;;;;;;13.20;69.10;;;;;;5272336;28;20008;-37
2022/03/05 04:33:56;;;;;;;;;;;13.10;69.00;;;;;;5272546;28;19920;-33
2022/03/05 04:36:27;;;;;;;;;;;13.20;69.00;;;;;;5272594;28;19963;-36
2022/03/05 04:38:58;;;;;;;;;;;13.20;69.00;;;;;;5272234;28;20257;-34
2022/03/05 04:41:29;;;;;;;;;;;13.20;69.10;;;;;;5272627;28;19920;-32
2022/03/05 04:44:00;;;;;;;;;;;13.10;69.00;;;;;;5272565;28;19920;-33
2022/03/05 04:46:30;;;;;;;;;;;13.20;69.00;;;;;;5272328;28;19924;-32
2022/03/05 04:49:02;;;;;;;;;;;13.20;69.00;;;;;;5272023;28;19931;-32
2022/03/05 04:51:32;;;;;;;;;;;13.10;69.00;;;;;;5272729;28;19920;-43
2022/03/05 04:54:04;;;;;;;;;;;13.10;69.00;;;;;;5272543;28;19924;-33
2022/03/05 04:56:35;;;;;;;;;;;13.10;69.00;;;;;;5272168;28;19927;-38
2022/03/05 04:59:06;;;;;;;;;;;13.20;68.90;;;;;;5271998;28;19920;-44
2022/03/05 05:01:37;;;;;;;;;;;13.20;68.90;;;;;;5271989;28;20357;-36
2022/03/05 05:04:08;;;;;;;;;;;13.20;68.80;;;;;;5272025;28;19946;-31
2022/03/05 05:06:39;;;;;;;;;;;13.20;69.10;;;;;;5272108;28;19920;-32
2022/03/05 05:09:10;;;;;;;;;;;13.20;69.20;;;;;;5272003;28;19924;-40
2022/03/05 05:11:42;;;;;;;;;;;13.20;69.20;;;;;;5272082;28;19931;-32
2022/03/05 05:14:13;;;;;;;;;;;13.30;69.10;;;;;;5271819;28;19920;-31
2022/03/05 05:16:43;;;;;;;;;;;13.30;69.10;;;;;;5271592;28;20430;-32
2022/03/05 05:19:29;;;;;;;;;;;13.40;69.00;;;;;;5271603;28;19920;-35
2022/03/05 05:22:01;;;;;;;;;;;13.40;68.90;;;;;;5271780;28;19943;-35
2022/03/05 05:24:33;;;;;;;;;;;13.40;69.60;;;;;;5269576;28;19981;-32
2022/03/05 05:27:03;;;;;;;;;;;13.40;71.50;;;;;;5260212;28;20006;-35
2022/03/05 05:29:35;;;;;;;;;;;13.50;69.10;;;;;;5241510;28;19920;-34
2022/03/05 05:32:10;;;;;;;;;;;13.50;68.50;;;;;;5258665;28;19927;-39
2022/03/05 05:34:44;;;;;;;;;;;13.60;68.20;;;;;;5258187;28;19924;-33
2022/03/05 05:37:15;;;;;;;;;;;13.60;68.10;;;;;;5260338;28;20010;-44
2022/03/05 05:39:46;;;;;;;;;;;13.60;68.10;;;;;;5262052;28;19920;-40
2022/03/05 05:42:16;;;;;;;;;;;13.60;68.00;;;;;;5256963;28;20050;-32
2022/03/05 05:44:47;;;;;;;;;;;13.60;68.00;;;;;;5260403;28;19924;-32
2022/03/05 05:47:18;;;;;;;;;;;13.60;68.20;;;;;;5258031;28;19927;-39
2022/03/05 05:49:49;;;;;;;;;;;13.60;68.20;;;;;;5254905;28;19927;-39
2022/03/05 05:52:20;;;;;;;;;;;13.60;68.30;;;;;;5259327;28;19920;-33
2022/03/05 05:54:51;;;;;;;;;;;13.60;68.40;;;;;;5257723;28;19924;-41
2022/03/05 05:57:22;;;;;;;;;;;13.60;68.60;;;;;;5262106;28;19924;-38
2022/03/05 05:59:53;;;;;;;;;;;13.50;68.70;;;;;;5257321;28;19947;-38
2022/03/05 06:02:24;;;;;;;;;;;13.50;68.70;;;;;;5260776;28;19924;-37
2022/03/05 06:04:55;;;;;;;;;;;13.50;68.90;;;;;;5262084;28;19970;-34
2022/03/05 06:07:25;;;;;;;;;;;13.50;69.00;;;;;;5258061;28;19987;-36
2022/03/05 06:09:57;;;;;;;;;;;13.50;69.30;;;;;;5256375;28;20654;-42
2022/03/05 06:12:28;;;;;;;;;;;13.50;69.40;;;;;;5257291;28;19920;-32
2022/03/05 06:15:01;;;;;;;;;;;13.50;69.50;;;;;;5256905;28;19925;-37
2022/03/05 06:17:32;;;;;;;;;;;13.50;69.70;;;;;;5257822;28;19977;-32
2022/03/05 06:20:03;;;;;;;;;;;13.50;69.90;;;;;;5260975;28;19924;-36
2022/03/05 06:22:34;;;;;;;;;;;13.50;70.10;;;;;;5253953;28;19931;-39
2022/03/05 06:25:05;;;;;;;;;;;13.50;70.30;;;;;;5260244;28;19931;-36
2022/03/05 06:27:36;;;;;;;;;;;13.50;70.40;;;;;;5260406;28;19924;-38
2022/03/05 06:30:15;;;;;;;;;;;13.50;71.80;;;;;;5261605;28;20281;-36
2022/03/05 06:32:47;;;;;;;;;;;13.50;74.80;;;;;;5255742;28;20409;-33
2022/03/05 06:35:18;;;;;;;;;;;13.60;74.60;;;;;;5258715;28;20284;-32
2022/03/05 06:37:49;;;;;;;;;;;13.70;77.00;;;;;;5267039;28;19919;-39
2022/03/05 06:40:20;;;;;;;;;;;13.90;73.50;;;;;;5270026;28;19926;-32
2022/03/05 06:42:51;;;;;;;;;;;14.00;72.80;;;;;;5270244;28;20364;-35
2022/03/05 06:45:22;;;;;;;;;;;14.10;73.00;;;;;;5270030;28;19920;-31
2022/03/05 06:47:53;;;;;;;;;;;14.20;73.10;;;;;;5270067;28;20321;-41
2022/03/05 06:50:25;;;;;;;;;;;14.30;71.80;;;;;;5269555;28;19927;-34
2022/03/05 06:52:56;;;;;;;;;;;14.40;72.90;;;;;;5269592;28;19973;-33
2022/03/05 06:55:27;;;;;;;;;;;14.50;73.00;;;;;;5257673;28;20381;-32
2022/03/05 06:57:58;;;;;;;;;;;14.50;74.10;;;;;;5260901;28;19927;-35
2022/03/05 07:00:29;;;;;;;;;;;14.50;73.90;;;;;;5269475;28;20357;-28
2022/03/05 07:02:59;;;;;;;;;;;14.40;73.60;;;;;;5234127;28;19943;-32
2022/03/05 07:05:30;;;;;;;;;;;14.50;82.70;;;;;;5269064;28;19943;-31
2022/03/05 07:08:01;;;;;;;;;;;14.50;85.10;;;;;;5269859;28;19970;-34
2022/03/05 07:10:32;;;;;;;;;;;14.60;85.00;;;;;;5269145;28;19932;-37
2022/03/05 07:13:04;;;;;;;;;;;14.60;76.00;;;;;;5269152;28;19927;-41
2022/03/05 07:15:35;;;;;;;;;;;14.60;74.40;;;;;;5267912;28;19927;-33
2022/03/05 07:18:06;;;;;;;;;;;14.60;76.00;;;;;;5269828;28;20357;-30
2022/03/05 07:20:37;;;;;;;;;;;14.60;76.40;;;;;;5268427;28;19920;-30
2022/03/05 07:23:07;;;;;;;;;;;14.60;75.10;;;;;;5269198;28;19973;-29
2022/03/05 07:25:43;;;;;;;;;;;14.60;73.40;;;;;;5269864;28;20361;-33
2022/03/05 07:28:14;;;;;;;;;;;14.50;73.30;;;;;;5269583;28;20370;-40
2022/03/05 07:30:46;;;;;;;;;;;14.40;73.30;;;;;;5269995;28;20364;-34
2022/03/05 07:33:17;;;;;;;;;;;14.40;73.50;;;;;;5269634;28;20007;-29
2022/03/05 07:35:48;;;;;;;;;;;14.40;73.70;;;;;;5269449;28;19924;-30
2022/03/05 07:38:19;;;;;;;;;;;14.40;73.80;;;;;;5268831;28;19935;-29
2022/03/05 07:40:50;;;;;;;;;;;14.40;74.00;;;;;;5269589;28;19920;-31
2022/03/05 07:43:21;;;;;;;;;;;14.30;74.00;;;;;;5269202;28;19924;-34
2022/03/05 07:45:52;;;;;;;;;;;14.30;74.00;;;;;;5260477;28;19927;-29
2022/03/05 07:48:23;;;;;;;;;;;14.30;74.50;;;;;;5258925;28;20371;-32
2022/03/05 07:50:54;;;;;;;;;;;14.30;74.00;;;;;;5267710;28;20361;-36
2022/03/05 07:53:25;;;;;;;;;;;14.30;74.10;;;;;;5269407;28;19927;-33
2022/03/05 07:55:56;;;;;;;;;;;14.20;74.20;;;;;;5269442;28;19954;-31
2022/03/05 07:58:27;;;;;;;;;;;14.20;74.20;;;;;;5268829;28;19948;-39
2022/03/05 08:00:58;;;;;;;;;;;14.20;74.30;;;;;;5269465;28;19994;-35
2022/03/05 08:03:29;;;;;;;;;;;14.20;74.30;;;;;;5268948;28;19935;-36
2022/03/05 08:06:00;;;;;;;;;;;14.20;74.40;;;;;;5271483;28;20011;-39
2022/03/05 08:08:31;;;;;;;;;;;14.20;74.50;;;;;;5272995;28;20010;-36
2022/03/05 08:11:02;;;;;;;;;;;14.10;74.60;;;;;;5272634;28;19919;-41
2022/03/05 08:13:33;;;;;;;;;;;14.10;74.70;;;;;;5272953;28;20011;-42
2022/03/05 08:16:04;;;;;;;;;;;14.10;74.80;;;;;;5271624;28;19927;-32
2022/03/05 08:18:36;;;;;;;;;;;14.10;74.90;;;;;;5265293;28;19920;-33
2022/03/05 08:21:08;;;;;;;;;;;14.10;75.00;;;;;;5262314;28;19920;-32
2022/03/05 08:23:38;;;;;;;;;;;14.10;75.10;;;;;;5253995;28;19920;-31
2022/03/05 08:26:13;;;;;;;;;;;14.10;75.30;;;;;;5256350;28;19966;-33
2022/03/05 08:28:44;;;;;;;;;;;14.10;75.40;;;;;;5263727;28;19920;-31
2022/03/05 08:31:16;;;;;;;;;;;14.10;75.60;;;;;;5271417;28;20338;-33
2022/03/05 08:33:46;;;;;;;;;;;14.00;75.40;;;;;;5263246;28;19924;-39
2022/03/05 08:36:18;;;;;;;;;;;14.00;75.50;;;;;;5256467;28;20022;-36
2022/03/05 08:38:49;;;;;;;;;;;14.00;76.10;;;;;;5272243;28;20449;-35
2022/03/05 08:41:20;;;;;;;;;;;14.00;75.90;;;;;;5271308;28;19923;-35
2022/03/05 08:43:51;;;;;;;;;;;14.00;75.80;;;;;;5271063;28;19923;-31
2022/03/05 08:46:22;;;;;;;;;;;14.00;76.00;;;;;;5272437;28;19920;-31
2022/03/05 08:48:53;;;;;;;;;;;14.00;75.90;;;;;;5272152;28;19927;-34
2022/03/05 08:51:24;;;;;;;;;;;14.00;76.10;;;;;;5272600;28;19920;-30
2022/03/05 08:53:55;;;;;;;;;;;14.00;78.10;;;;;;5272291;28;19927;-32
2022/03/05 08:56:26;;;;;;;;;;;14.00;77.10;;;;;;5272342;28;19958;-31
2022/03/05 08:58:57;;;;;;;;;;;14.00;77.10;;;;;;5272232;28;20361;-32
2022/03/05 09:01:28;;;;;;;;;;;14.00;76.90;;;;;;5271938;28;19927;-33
2022/03/05 09:03:58;;;;;;;;;;;13.90;76.90;;;;;;5272331;28;19919;-34
2022/03/05 09:06:29;;;;;;;;;;;13.90;76.80;;;;;;5272237;28;19946;-30
2022/03/05 09:09:00;;;;;;;;;;;13.90;78.70;;;;;;5271868;28;19920;-32
2022/03/05 09:11:31;;;;;;;;;;;13.90;79.10;;;;;;5270604;28;19924;-31
2022/03/05 09:14:02;;;;;;;;;;;13.90;78.90;;;;;;5271663;28;19928;-31
2022/03/05 09:16:37;;;;;;;;;;;13.90;78.80;;;;;;5271663;28;19965;-31
2022/03/05 09:19:08;;;;;;;;;;;13.90;78.30;;;;;;5271423;28;19930;-33
2022/03/05 09:21:39;;;;;;;;;;;13.90;78.30;;;;;;5270619;28;19924;-33
2022/03/05 09:24:10;;;;;;;;;;;13.90;78.30;;;;;;5271413;28;19929;-31
2022/03/05 09:26:41;;;;;;;;;;;13.90;77.90;;;;;;5272091;28;19924;-33
2022/03/05 09:29:12;;;;;;;;;;;13.90;77.70;;;;;;5271422;28;19973;-31
2022/03/05 09:31:43;;;;;;;;;;;13.80;77.40;;;;;;5271449;28;19927;-33
2022/03/05 09:34:13;;;;;;;;;;;13.80;77.40;;;;;;5271551;28;20326;-34
2022/03/05 09:36:44;;;;;;;;;;;13.80;77.40;;;;;;5271179;28;19919;-32
2022/03/05 09:39:15;;;;;;;;;;;13.80;77.10;;;;;;5271780;28;19920;-31
2022/03/05 09:41:46;;;;;;;;;;;13.80;76.70;;;;;;5270023;28;19927;-31
2022/03/05 09:44:17;;;;;;;;;;;13.80;76.40;;;;;;5271370;28;19920;-31
2022/03/05 09:46:48;;;;;;;;;;;13.80;76.20;;;;;;5271194;28;19951;-33
2022/03/05 09:49:19;;;;;;;;;;;13.70;75.50;;;;;;5269819;28;20391;-32
2022/03/05 09:51:50;;;;;;;;;;;13.70;75.10;;;;;;5271516;28;19923;-31
2022/03/05 09:54:21;;;;;;;;;;;13.70;75.00;;;;;;5271233;28;19924;-31
2022/03/05 09:56:52;;;;;;;;;;;13.70;75.00;;;;;;5270989;28;19923;-31
2022/03/05 09:59:22;;;;;;;;;;;13.70;75.10;;;;;;5270894;28;19920;-30
2022/03/05 10:01:53;;;;;;;;;;;13.70;74.50;;;;;;5271272;28;19924;-31
2022/03/05 10:04:24;;;;;;;;;;;13.70;73.80;;;;;;5270901;28;19972;-33
2022/03/05 10:07:08;;;;;;;;;;;13.60;73.60;;;;;;5253174;28;19969;-31
2022/03/05 10:09:40;;;;;;;;;;;13.60;72.40;;;;;;5270849;28;19970;-31
2022/03/05 10:12:26;;;;;;;;;;;13.60;72.10;;;;;;5270770;28;19920;-32
2022/03/05 10:15:13;;;;;;;;;;;13.60;72.00;;;;;;5270756;28;19927;-33
2022/03/05 10:17:51;;;;;;;;;;;13.50;71.60;;;;;;5270767;28;19923;-31
2022/03/05 10:20:25;;;;;;;;;;;13.60;71.00;;;;;;5271228;28;19920;-31
2022/03/05 10:22:57;;;;;;;;;;;13.50;70.40;;;;;;5270466;28;19927;-31
2022/03/05 10:25:37;;;;;;;;;;;13.50;70.20;;;;;;5270615;28;20371;-33
2022/03/05 10:28:08;;;;;;;;;;;13.50;69.40;;;;;;5269847;28;19920;-33
2022/03/05 10:30:40;;;;;;;;;;;13.50;69.40;;;;;;5269220;28;20364;-31
2022/03/05 10:33:28;;;;;;;;;;;13.40;69.20;;;;;;5270173;28;19924;-33
2022/03/05 10:36:00;;;;;;;;;;;13.40;69.30;;;;;;5270557;28;19919;-31
2022/03/05 10:38:46;;;;;;;;;;;13.40;69.10;;;;;;5270223;28;19959;-33
2022/03/05 10:41:36;;;;;;;;;;;13.40;69.40;;;;;;5270310;28;19958;-31
2022/03/05 10:44:08;;;;;;;;;;;13.40;70.10;;;;;;5270221;28;19927;-32
2022/03/05 10:46:53;;;;;;;;;;;13.40;70.20;;;;;;5270338;28;19943;-32
2022/03/05 10:49:25;;;;;;;;;;;13.40;70.20;;;;;;5270221;28;20022;-30
2022/03/05 10:52:02;;;;;;;;;;;13.40;70.50;;;;;;5269863;28;19979;-32
2022/03/05 10:54:39;;;;;;;;;;;13.30;70.50;;;;;;5270557;28;20018;-31
2022/03/05 10:57:10;;;;;;;;;;;13.30;70.50;;;;;;5270211;28;19924;-31
2022/03/05 10:59:42;;;;;;;;;;;13.30;70.60;;;;;;5269996;28;20049;-32
2022/03/05 11:02:13;;;;;;;;;;;13.40;70.70;;;;;;5270472;28;19931;-31
2022/03/05 11:04:45;;;;;;;;;;;13.40;70.40;;;;;;5268807;28;19920;-32
2022/03/05 11:07:17;;;;;;;;;;;13.30;70.00;;;;;;5270042;28;20319;-31
2022/03/05 11:09:51;;;;;;;;;;;13.30;69.60;;;;;;5270015;28;19920;-31
2022/03/05 11:12:22;;;;;;;;;;;13.30;68.40;;;;;;5269962;28;19924;-34
2022/03/05 11:14:53;;;;;;;;;;;13.30;67.50;;;;;;5269693;28;19920;-31
2022/03/05 11:17:24;;;;;;;;;;;13.30;66.90;;;;;;5270540;28;19920;-37
2022/03/05 11:19:57;;;;;;;;;;;13.30;67.10;;;;;;5268740;28;19958;-30
2022/03/05 11:22:28;;;;;;;;;;;13.30;67.80;;;;;;5268462;28;20010;-32
2022/03/05 11:24:59;;;;;;;;;;;13.30;67.80;;;;;;5268503;28;19927;-33
2022/03/05 11:27:30;;;;;;;;;;;13.30;68.00;;;;;;5269873;28;20366;-31
2022/03/05 11:30:03;;;;;;;;;;;13.30;68.50;;;;;;5269798;28;19976;-34
2022/03/05 11:32:35;;;;;;;;;;;13.30;68.50;;;;;;5269905;28;19920;-31
2022/03/05 11:35:18;;;;;;;;;;;13.30;68.80;;;;;;5269787;28;19927;-31
2022/03/05 11:37:50;;;;;;;;;;;13.30;69.30;;;;;;5269951;28;19928;-33
2022/03/05 11:40:35;;;;;;;;;;;13.20;69.50;;;;;;5271610;28;20349;-31
2022/03/05 11:43:19;;;;;;;;;;;13.20;69.50;;;;;;5272663;28;19927;-31
2022/03/05 11:46:10;;;;;;;;;;;13.20;70.00;;;;;;5273445;28;19920;-31
2022/03/05 11:48:41;;;;;;;;;;;13.20;70.00;;;;;;5273455;28;20014;-32
2022/03/05 11:51:16;;;;;;;;;;;13.20;70.00;;;;;;5273676;28;19943;-34
2022/03/05 11:53:49;;;;;;;;;;;13.20;69.10;;;;;;5273452;28;19923;-31
2022/03/05 11:56:23;;;;;;;;;;;13.20;68.00;;;;;;5255803;28;19932;-31
2022/03/05 11:58:54;;;;;;;;;;;13.20;68.30;;;;;;5273586;28;20345;-31
2022/03/05 12:01:35;;;;;;;;;;;13.20;67.90;;;;;;5273188;28;19959;-31
2022/03/05 12:04:15;;;;;;;;;;;13.20;67.60;;;;;;5273336;28;19973;-32
2022/03/05 12:06:48;;;;;;;;;;;13.20;67.90;;;;;;5272438;28;19927;-32
2022/03/05 12:09:37;;;;;;;;;;;13.20;68.20;;;;;;5271146;28;20336;-33
2022/03/05 12:12:09;;;;;;;;;;;13.20;68.50;;;;;;5273174;28;19920;-32
2022/03/05 12:14:55;;;;;;;;;;;13.20;68.20;;;;;;5273171;28;19920;-34
2022/03/05 12:17:31;;;;;;;;;;;13.20;68.20;;;;;;5272786;28;19920;-32
2022/03/05 12:20:03;;;;;;;;;;;13.20;68.00;;;;;;5272005;28;20314;-30
2022/03/05 12:22:35;;;;;;;;;;;13.20;68.10;;;;;;5273611;28;19920;-31
2022/03/05 12:25:06;;;;;;;;;;;13.20;67.80;;;;;;5271581;28;19920;-32
2022/03/05 12:27:50;;;;;;;;;;;13.20;67.60;;;;;;5273026;28;19927;-31
2022/03/05 12:30:25;;;;;;;;;;;13.20;67.40;;;;;;5271887;28;19973;-32
2022/03/05 12:33:01;;;;;;;;;;;13.30;67.60;;;;;;5273083;28;19920;-31
2022/03/05 12:35:32;;;;;;;;;;;13.30;66.80;;;;;;5272552;28;19919;-31
2022/03/05 12:38:03;;;;;;;;;;;13.30;66.00;;;;;;5272570;28;19920;-31
2022/03/05 12:40:34;;;;;;;;;;;13.30;65.60;;;;;;5272395;28;20387;-31
2022/03/05 12:43:09;;;;;;;;;;;13.30;65.60;;;;;;5272611;28;19920;-34
2022/03/05 12:45:40;;;;;;;;;;;13.30;65.90;;;;;;5272663;28;19920;-31
2022/03/05 12:48:12;;;;;;;;;;;13.30;65.70;;;;;;5272293;28;19920;-31
2022/03/05 12:50:48;;;;;;;;;;;13.30;65.60;;;;;;5271803;28;19921;-34
2022/03/05 12:53:26;;;;;;;;;;;13.30;66.10;;;;;;5271176;28;19934;-31
2022/03/05 12:55:58;;;;;;;;;;;13.40;66.20;;;;;;5272006;28;19927;-33
2022/03/05 12:58:32;;;;;;;;;;;13.30;66.60;;;;;;5272076;28;19960;-30
2022/03/05 13:01:04;;;;;;;;;;;13.30;66.40;;;;;;5272327;28;20364;-31
2022/03/05 13:03:35;;;;;;;;;;;13.40;66.20;;;;;;5272191;28;19920;-33
2022/03/05 13:06:06;;;;;;;;;;;13.40;65.50;;;;;;5270695;28;19920;-33
2022/03/05 13:08:42;;;;;;;;;;;13.40;65.50;;;;;;5271835;28;19924;-31
2022/03/05 13:11:15;;;;;;;;;;;13.50;65.50;;;;;;5271955;28;20332;-33
2022/03/05 13:13:47;;;;;;;;;;;13.50;65.40;;;;;;5271942;28;19920;-31
2022/03/05 13:16:19;;;;;;;;;;;13.50;65.80;;;;;;5271940;28;20018;-31
2022/03/05 13:18:57;;;;;;;;;;;13.50;65.80;;;;;;5271804;28;20380;-30
2022/03/05 13:21:28;;;;;;;;;;;13.60;65.50;;;;;;5271632;28;19920;-32
2022/03/05 13:24:06;;;;;;;;;;;13.60;64.90;;;;;;5271795;28;20317;-34
2022/03/05 13:26:38;;;;;;;;;;;13.50;64.80;;;;;;5271791;28;19972;-31
2022/03/05 13:29:10;;;;;;;;;;;13.50;64.90;;;;;;5271584;28;19920;-32
2022/03/05 13:31:41;;;;;;;;;;;13.50;64.80;;;;;;5271652;28;20311;-31
2022/03/05 13:34:22;;;;;;;;;;;13.60;64.80;;;;;;5271631;28;19920;-32
2022/03/05 13:36:53;;;;;;;;;;;13.50;65.20;;;;;;5271547;28;19920;-35
2022/03/05 13:39:25;;;;;;;;;;;13.50;65.20;;;;;;5270044;28;20011;-32
2022/03/05 13:41:56;;;;;;;;;;;13.50;65.10;;;;;;5271297;28;20339;-31
2022/03/05 13:44:31;;;;;;;;;;;13.50;65.20;;;;;;5271329;28;19950;-32
2022/03/05 13:47:03;;;;;;;;;;;13.50;65.00;;;;;;5270168;28;19920;-32
2022/03/05 13:49:34;;;;;;;;;;;13.50;64.80;;;;;;5271259;28;19973;-31
2022/03/05 13:52:06;;;;;;;;;;;13.50;64.70;;;;;;5270859;28;20369;-31
2022/03/05 13:54:38;;;;;;;;;;;13.50;64.90;;;;;;5271207;28;19973;-32
2022/03/05 13:57:09;;;;;;;;;;;13.50;64.50;;;;;;5270862;28;19970;-36
2022/03/05 13:59:46;;;;;;;;;;;13.50;64.30;;;;;;5270045;28;19920;-31
2022/03/05 14:02:17;;;;;;;;;;;13.50;64.40;;;;;;5270516;28;19942;-32
2022/03/05 14:04:58;;;;;;;;;;;13.50;64.60;;;;;;5270760;28;19942;-31
2022/03/05 14:07:30;;;;;;;;;;;13.50;64.80;;;;;;5270933;28;19920;-32
2022/03/05 14:10:02;;;;;;;;;;;13.40;64.20;;;;;;5270860;28;20261;-31
2022/03/05 14:12:33;;;;;;;;;;;13.40;64.10;;;;;;5269797;28;19920;-34
2022/03/05 14:15:04;;;;;;;;;;;13.40;64.60;;;;;;5269759;28;20246;-30